Time;durP1;ratioP1;P1;durP2;ratioP2;P2;SDS_P1;SDS_P2;PMS_P1;PMS_P2;Temp;Humidity;BMP_temperature;BMP_pressure;BME280_temperature;BME280_humidity;BME280_pressure;Samples;Min_cycle;Max_cycle;Signal;HPM_P1;HPM_P2
2021/12/23 00:01:25;;;;;;;1.35;0.77;;;-0.10;92.00;;;;;;4823677;29;20064;-81
2021/12/23 00:03:50;;;;;;;2.03;0.90;;;0.00;92.10;;;;;;4812345;29;20095;-81
2021/12/23 00:06:16;;;;;;;1.63;0.80;;;0.10;92.10;;;;;;4830075;29;20042;-84
2021/12/23 00:08:42;;;;;;;1.55;0.90;;;0.00;92.10;;;;;;4801753;29;20046;-80
2021/12/23 00:11:17;;;;;;;1.98;1.00;;;0.00;92.10;;;;;;4805436;29;20053;-81
2021/12/23 00:13:50;;;;;;;1.20;0.68;;;0.00;92.10;;;;;;4753638;30;20240;-82
2021/12/23 00:16:19;;;;;;;1.13;0.73;;;0.00;92.00;;;;;;4775436;29;20054;-84
2021/12/23 00:18:55;;;;;;;1.10;0.80;;;0.20;92.10;;;;;;4783953;29;20506;-83
2021/12/23 00:24:03;;;;;;;1.17;0.70;;;0.10;92.00;;;;;;4813519;29;20047;-81
2021/12/23 00:26:37;;;;;;;0.82;0.60;;;0.10;92.10;;;;;;4810809;29;20050;-83
2021/12/23 00:33:23;;;;;;;1.55;0.80;;;0.10;92.10;;;;;;4818184;29;20057;-80
2021/12/23 00:39:17;;;;;;;1.95;0.93;;;0.00;91.90;;;;;;4713965;30;20144;-82
2021/12/23 00:54:34;;;;;;;1.88;0.70;;;0.10;91.90;;;;;;4670082;30;20193;-83
2021/12/23 01:01:34;;;;;;;1.45;0.90;;;0.10;91.90;;;;;;4618892;30;20143;-83
2021/12/23 01:04:04;;;;;;;2.10;0.90;;;0.20;91.90;;;;;;4608886;31;20052;-84
2021/12/23 01:06:35;;;;;;;1.98;0.90;;;0.00;91.80;;;;;;4614413;31;20048;-83
2021/12/23 01:09:01;;;;;;;1.48;0.93;;;0.00;91.80;;;;;;4621902;30;20065;-84
2021/12/23 01:11:27;;;;;;;2.67;1.13;;;0.10;91.90;;;;;;4645294;30;20055;-82
2021/12/23 01:14:13;;;;;;;1.27;0.80;;;0.10;91.90;;;;;;4651849;30;20044;-84
2021/12/23 01:19:25;;;;;;;2.03;1.17;;;0.20;91.90;;;;;;4653875;30;20047;-83
2021/12/23 01:21:51;;;;;;;1.67;0.80;;;0.10;91.90;;;;;;4648933;30;20491;-82
2021/12/23 01:24:17;;;;;;;1.83;1.00;;;0.10;91.90;;;;;;4652264;30;20051;-84
2021/12/23 01:26:43;;;;;;;1.75;0.95;;;0.10;91.90;;;;;;4695424;30;20107;-83
2021/12/23 01:29:12;;;;;;;2.13;1.20;;;0.20;91.90;;;;;;4669937;30;20113;-83
2021/12/23 01:31:38;;;;;;;2.10;1.27;;;0.10;91.90;;;;;;4740611;30;20608;-83
2021/12/23 01:34:05;;;;;;;1.80;1.17;;;0.10;91.90;;;;;;4757680;30;20053;-83
2021/12/23 01:36:32;;;;;;;2.47;1.20;;;0.30;91.90;;;;;;4763280;29;20041;-84
2021/12/23 01:39:00;;;;;;;2.80;1.02;;;0.20;91.90;;;;;;4824857;29;20077;-84
2021/12/23 01:41:26;;;;;;;1.65;0.93;;;0.20;91.90;;;;;;4795024;29;20047;-80
2021/12/23 01:43:53;;;;;;;1.70;1.10;;;0.20;91.90;;;;;;4823629;29;20054;-81
2021/12/23 01:46:21;;;;;;;2.65;1.33;;;0.10;91.80;;;;;;4802827;29;20077;-82
2021/12/23 01:48:47;;;;;;;2.63;1.50;;;0.10;91.90;;;;;;4821973;29;20053;-82
2021/12/23 01:51:18;;;;;;;2.58;1.40;;;0.20;91.90;;;;;;4810737;29;20058;-84
2021/12/23 01:53:44;;;;;;;3.10;1.40;;;0.20;91.90;;;;;;4794999;29;20038;-83
2021/12/23 01:56:10;;;;;;;1.85;1.15;;;0.10;91.80;;;;;;4816946;29;20083;-83
2021/12/23 01:58:41;;;;;;;2.55;1.13;;;0.20;91.90;;;;;;4812526;29;20102;-81
2021/12/23 02:01:07;;;;;;;1.75;1.00;;;0.20;91.90;;;;;;4843341;29;20342;-82
2021/12/23 02:03:33;;;;;;;1.42;0.88;;;0.20;91.90;;;;;;4868841;29;20071;-79
2021/12/23 02:05:58;;;;;;;1.33;0.80;;;0.20;91.90;;;;;;4862538;29;20041;-82
2021/12/23 02:08:24;;;;;;;2.25;1.27;;;0.20;91.90;;;;;;4859197;29;20243;-83
2021/12/23 02:10:52;;;;;;;2.33;1.20;;;0.20;91.90;;;;;;4893052;29;20044;-81
2021/12/23 02:13:17;;;;;;;1.88;1.13;;;0.20;91.90;;;;;;4899402;29;20051;-82
2021/12/23 02:15:43;;;;;;;1.90;0.93;;;0.20;91.90;;;;;;4901755;29;20092;-80
2021/12/23 02:18:36;;;;;;;1.55;0.70;;;0.20;91.90;;;;;;4916910;29;20051;-84
2021/12/23 02:25:13;;;;;;;1.07;0.60;;;0.20;91.90;;;;;;4914409;29;20059;-85
2021/12/23 02:31:42;;;;;;;0.70;0.65;;;0.10;91.90;;;;;;4903572;29;20063;-83
2021/12/23 02:34:08;;;;;;;1.88;0.90;;;0.10;91.90;;;;;;4918223;29;20048;-80
2021/12/23 02:36:33;;;;;;;1.15;0.60;;;0.10;91.90;;;;;;4901837;29;20036;-83
2021/12/23 02:39:02;;;;;;;1.20;0.70;;;0.00;91.90;;;;;;4915981;29;20047;-82
2021/12/23 02:41:29;;;;;;;0.77;0.57;;;0.00;92.00;;;;;;4906077;29;20036;-80
2021/12/23 02:43:54;;;;;;;0.90;0.50;;;0.00;92.00;;;;;;4889290;29;20036;-79
2021/12/23 02:46:21;;;;;;;1.23;0.63;;;0.00;92.00;;;;;;4887742;29;20043;-81
2021/12/23 02:48:47;;;;;;;1.75;0.80;;;-0.10;92.10;;;;;;4884970;29;20036;-79
2021/12/23 02:51:15;;;;;;;0.98;0.70;;;-0.10;92.10;;;;;;4886553;29;20058;-78
2021/12/23 02:53:43;;;;;;;1.42;0.75;;;-0.10;92.10;;;;;;4916600;29;20063;-80
2021/12/23 02:56:11;;;;;;;1.83;0.80;;;-0.20;92.10;;;;;;4899545;29;20070;-78
2021/12/23 02:58:37;;;;;;;0.95;0.68;;;-0.20;92.10;;;;;;4884019;29;20114;-78
2021/12/23 03:01:08;;;;;;;1.15;0.63;;;-0.30;92.10;;;;;;4899732;29;20486;-78
2021/12/23 03:03:33;;;;;;;1.55;0.70;;;-0.20;92.20;;;;;;4899860;29;20542;-79
2021/12/23 03:05:59;;;;;;;0.90;0.50;;;-0.20;92.20;;;;;;4883515;29;20096;-79
2021/12/23 03:08:40;;;;;;;1.95;0.80;;;-0.30;92.20;;;;;;4899210;29;20060;-78
2021/12/23 03:11:08;;;;;;;1.25;0.60;;;-0.20;92.20;;;;;;4901546;29;20391;-80
2021/12/23 03:13:36;;;;;;;1.13;0.77;;;-0.30;92.20;;;;;;4898320;29;20044;-80
